Portada
METAR-TAF:

METAR-TAF

Aeroports :

Zaqatala, Azerbaidjan

latitud: 41-33-44N, longitud: 46-40-02E, altitud: 330 m

Observació

L'informe es va fer fa 1 hora i 1 minuts, a les 19:00 UTC
Vent 6 kt del Est
Temperatura 5°C
Humitat 81%
Pressió 1025 hPa
Visibilitat 10 km o més
Núvols disperses a una alçada de 4500 ft

METAR: UBBY 071900Z 09006KT 9999 SCT045 05/02 Q1025 R33/////// NOSIG RMK MT OP

Hora: 00:01 (20:01 UTC)

Pronòstic

L'informe es va fer fa 3 hores i 1 minuts, a les 17:00 UTC
Pronòstic vàlid del 07 a les 18 UTC al 08 a les 03 UTC
Vent 4 kt amb direcció variable
Visibilitat: 6000 m
Escasses núvols a una alçada de 2000 ft
Núvols disperses a una alçada de 5500 ft

TAF: UBBY 071700Z 0718/0803 VRB04KT 6000 FEW020 SCT055

Observacions i pronòstics meteorològics de més de 4000 aeroports (METAR i TAF).

Les estacions disponibles són els punts grocs i vermells al mapa.

Posi el ratolí al punt desitjat per veure el nom de l'estació.

Feu clic per veure les observacions i els pronòstics meteorològics.

Per canviar el mapa: feu clic els botons verds amb una creu de color negre per apropar; al botó verd amb un guió per allunyar la imatge; o en les fletxes verdes per a mapes adjacents.


METAR-TAF: